Time;durP1;ratioP1;P1;durP2;ratioP2;P2;SDS_P1;SDS_P2;PMS_P1;PMS_P2;Temp;Humidity;BMP_temperature;BMP_pressure;BME280_temperature;BME280_humidity;BME280_pressure;Samples;Min_cycle;Max_cycle;Signal;HPM_P1;HPM_P2
2023/05/18 00:00:44;;;;;;;10.95;2.50;;;11.70;99.90;;;;;;5037675;28;20055;-79
2023/05/18 00:03:11;;;;;;;5.75;1.80;;;11.70;99.90;;;;;;5054185;28;20052;-79
2023/05/18 00:05:38;;;;;;;12.07;2.40;;;11.70;99.90;;;;;;5021502;28;20033;-79
2023/05/18 00:10:50;;;;;;;10.40;2.53;;;11.60;99.90;;;;;;5054276;28;20037;-79
2023/05/18 00:13:16;;;;;;;7.07;1.92;;;11.60;99.90;;;;;;5054881;28;20044;-79
2023/05/18 00:15:43;;;;;;;9.57;2.13;;;11.60;99.90;;;;;;5053265;28;20045;-79
2023/05/18 00:18:10;;;;;;;14.63;2.10;;;11.60;99.90;;;;;;5036970;28;20439;-79
2023/05/18 00:20:37;;;;;;;7.28;1.73;;;11.60;99.90;;;;;;5037313;28;20518;-79
2023/05/18 00:23:05;;;;;;;11.77;2.47;;;11.50;99.90;;;;;;5036520;28;20051;-79
2023/05/18 00:25:31;;;;;;;9.68;2.00;;;11.50;99.90;;;;;;5037510;28;20395;-79
2023/05/18 00:27:59;;;;;;;8.77;2.03;;;11.50;99.90;;;;;;5054740;28;20131;-79
2023/05/18 00:30:26;;;;;;;13.63;2.25;;;11.50;99.90;;;;;;5035048;28;20041;-79
2023/05/18 00:32:55;;;;;;;17.42;2.60;;;11.50;99.90;;;;;;5017203;28;20038;-79
2023/05/18 00:35:22;;;;;;;8.85;2.25;;;11.50;99.90;;;;;;5016504;28;20053;-79
2023/05/18 00:37:50;;;;;;;12.27;2.55;;;11.50;99.90;;;;;;5017326;28;20052;-79
2023/05/18 00:40:17;;;;;;;9.98;2.00;;;11.50;99.90;;;;;;5042801;28;20052;-79
2023/05/18 00:42:44;;;;;;;9.32;1.95;;;11.50;99.90;;;;;;5052711;28;20048;-79
2023/05/18 00:45:11;;;;;;;8.13;2.35;;;11.50;99.90;;;;;;5053664;28;20041;-79
2023/05/18 00:47:39;;;;;;;7.30;2.38;;;11.40;99.90;;;;;;5070544;28;20366;-79
2023/05/18 00:50:06;;;;;;;17.27;2.67;;;11.40;99.90;;;;;;5053855;28;20455;-79
2023/05/18 00:52:33;;;;;;;11.55;2.15;;;11.40;99.90;;;;;;5054452;28;20041;-79
2023/05/18 00:55:00;;;;;;;6.40;2.13;;;11.40;99.90;;;;;;5053628;28;20110;-79
2023/05/18 00:57:27;;;;;;;11.18;2.55;;;11.40;99.90;;;;;;5053048;28;20044;-79
2023/05/18 00:59:55;;;;;;;13.43;2.30;;;11.40;99.90;;;;;;5053706;28;20049;-80
2023/05/18 01:02:21;;;;;;;8.13;2.15;;;11.30;99.90;;;;;;5053596;28;20103;-79
2023/05/18 01:04:48;;;;;;;12.73;2.80;;;11.30;99.90;;;;;;5054055;28;20084;-79
2023/05/18 01:07:21;;;;;;;10.80;2.45;;;11.20;99.90;;;;;;5053065;28;20048;-79
2023/05/18 01:09:49;;;;;;;7.82;2.30;;;11.20;99.90;;;;;;5052186;28;20064;-79
2023/05/18 01:12:15;;;;;;;11.93;2.05;;;11.20;99.90;;;;;;5053734;28;20128;-79
2023/05/18 01:14:44;;;;;;;14.95;2.55;;;11.20;99.90;;;;;;5054672;28;20064;-79
2023/05/18 01:17:11;;;;;;;8.13;2.40;;;11.20;99.90;;;;;;5052601;28;20079;-79
2023/05/18 01:19:37;;;;;;;8.05;2.20;;;11.20;99.90;;;;;;5070161;28;20045;-79
2023/05/18 01:22:04;;;;;;;8.77;2.20;;;11.10;99.90;;;;;;5052393;28;20355;-79
2023/05/18 01:24:32;;;;;;;8.88;2.08;;;11.10;99.90;;;;;;5057195;28;20040;-79
2023/05/18 01:26:58;;;;;;;10.45;2.08;;;11.20;99.90;;;;;;5057418;28;20037;-79
2023/05/18 01:29:29;;;;;;;9.15;2.40;;;11.20;99.90;;;;;;5056700;28;20131;-79
2023/05/18 01:31:56;;;;;;;11.98;2.33;;;11.20;99.90;;;;;;5073564;28;20045;-78
2023/05/18 01:34:23;;;;;;;10.07;2.50;;;11.20;99.90;;;;;;5061235;28;20064;-79
2023/05/18 01:36:52;;;;;;;8.85;2.47;;;11.10;99.90;;;;;;5059574;28;20048;-79
2023/05/18 01:39:19;;;;;;;9.55;2.60;;;11.20;99.90;;;;;;5077094;28;20071;-79
2023/05/18 01:41:46;;;;;;;17.13;2.67;;;11.10;99.90;;;;;;5057593;28;20383;-79
2023/05/18 01:44:14;;;;;;;10.85;2.83;;;11.10;99.90;;;;;;5039488;28;20065;-79
2023/05/18 01:46:43;;;;;;;9.30;2.42;;;11.00;99.90;;;;;;5040372;28;20052;-79
2023/05/18 01:49:10;;;;;;;13.15;2.38;;;11.00;99.90;;;;;;5039340;28;20036;-79
2023/05/18 01:51:36;;;;;;;13.82;2.75;;;11.00;99.90;;;;;;5040030;28;20048;-78
2023/05/18 01:54:03;;;;;;;13.98;2.85;;;11.00;99.90;;;;;;5040604;28;20065;-79
2023/05/18 01:56:31;;;;;;;12.57;2.75;;;11.00;99.90;;;;;;5039276;28;20045;-79
2023/05/18 01:58:58;;;;;;;10.30;2.38;;;10.90;99.90;;;;;;5040473;28;20106;-79
2023/05/18 02:01:25;;;;;;;10.30;2.55;;;10.90;99.90;;;;;;5039569;28;20045;-79
2023/05/18 02:03:52;;;;;;;13.43;2.83;;;10.90;99.90;;;;;;5039275;28;20067;-79
2023/05/18 02:09:07;;;;;;;5.53;1.88;;;10.90;99.90;;;;;;5039056;28;20045;-79
2023/05/18 02:11:34;;;;;;;13.73;2.45;;;10.90;99.90;;;;;;5039782;28;20418;-79
2023/05/18 02:14:01;;;;;;;11.63;2.72;;;10.90;99.90;;;;;;5040148;28;20045;-80
2023/05/18 02:16:29;;;;;;;10.63;2.20;;;10.90;99.90;;;;;;5039388;28;20049;-79
2023/05/18 02:18:56;;;;;;;7.93;2.40;;;10.90;99.90;;;;;;5023516;28;20045;-79
2023/05/18 02:21:24;;;;;;;9.48;2.25;;;10.90;99.90;;;;;;5056904;28;20049;-79
2023/05/18 02:23:51;;;;;;;10.15;2.70;;;10.90;99.90;;;;;;5039154;28;20052;-79
2023/05/18 02:26:20;;;;;;;11.60;2.35;;;10.90;99.90;;;;;;5039309;28;20041;-79
2023/05/18 02:28:51;;;;;;;6.40;1.80;;;10.90;99.90;;;;;;5038808;28;20052;-79
2023/05/18 02:31:17;;;;;;;7.40;2.30;;;10.80;99.90;;;;;;5039667;28;20106;-79
2023/05/18 02:33:44;;;;;;;9.65;2.35;;;10.80;99.90;;;;;;5057028;28;20037;-79
2023/05/18 02:36:11;;;;;;;7.60;2.20;;;10.70;99.90;;;;;;5038527;28;20045;-79
2023/05/18 02:38:38;;;;;;;9.57;2.33;;;10.70;99.90;;;;;;5039487;28;20056;-79
2023/05/18 02:41:05;;;;;;;11.93;2.38;;;10.60;99.90;;;;;;5064482;28;20110;-79
2023/05/18 02:43:33;;;;;;;11.90;2.60;;;10.60;99.90;;;;;;5058500;28;20457;-79
2023/05/18 02:49:05;;;;;;;11.82;2.22;;;10.50;99.90;;;;;;5074945;28;20085;-79
2023/05/18 02:51:32;;;;;;;11.80;2.10;;;10.50;99.90;;;;;;5075391;28;20101;-78
2023/05/18 02:54:00;;;;;;;6.32;2.30;;;10.50;99.90;;;;;;5075466;28;20068;-79
2023/05/18 02:56:28;;;;;;;11.38;2.47;;;10.50;99.90;;;;;;5074743;28;20037;-79
2023/05/18 02:59:03;;;;;;;8.07;2.08;;;10.50;99.90;;;;;;5075690;28;20071;-79
2023/05/18 03:01:36;;;;;;;9.73;2.35;;;10.50;99.90;;;;;;5075375;28;20430;-79
2023/05/18 03:04:03;;;;;;;9.13;2.40;;;10.60;99.90;;;;;;5075553;28;20068;-79
2023/05/18 03:09:16;;;;;;;11.57;2.35;;;10.50;99.90;;;;;;5091357;28;20490;-79
2023/05/18 03:11:43;;;;;;;7.75;2.42;;;10.40;99.90;;;;;;5075020;28;20374;-79
2023/05/18 03:14:11;;;;;;;9.13;2.33;;;10.40;99.90;;;;;;5058503;28;20155;-79
2023/05/18 03:16:40;;;;;;;15.52;2.88;;;10.40;99.90;;;;;;5074360;28;20037;-79
2023/05/18 03:19:13;;;;;;;10.02;2.60;;;10.30;99.90;;;;;;5075035;28;20098;-79
2023/05/18 03:21:41;;;;;;;13.60;2.40;;;10.30;99.90;;;;;;5074714;28;20391;-79
2023/05/18 03:24:07;;;;;;;5.57;1.88;;;10.20;99.90;;;;;;5074231;28;20068;-79
2023/05/18 03:29:24;;;;;;;8.30;2.10;;;10.30;99.90;;;;;;5091084;28;20060;-80
2023/05/18 03:31:51;;;;;;;6.50;1.75;;;10.30;99.90;;;;;;5074559;28;20040;-79
2023/05/18 03:34:17;;;;;;;15.32;2.10;;;10.30;99.90;;;;;;5054647;28;20045;-79
2023/05/18 03:36:46;;;;;;;12.93;2.55;;;10.30;99.90;;;;;;5070570;28;20037;-79
2023/05/18 03:39:13;;;;;;;10.10;3.33;;;10.30;99.90;;;;;;5054720;28;20040;-79
2023/05/18 03:41:39;;;;;;;6.63;2.20;;;10.20;99.90;;;;;;5071061;28;20055;-79
2023/05/18 03:44:06;;;;;;;7.13;2.13;;;10.20;99.90;;;;;;5070250;28;20045;-79
2023/05/18 03:46:33;;;;;;;9.13;2.50;;;10.20;99.90;;;;;;5069757;28;20060;-79
2023/05/18 03:49:00;;;;;;;10.55;2.42;;;10.10;99.90;;;;;;5053170;28;20140;-79
2023/05/18 03:51:32;;;;;;;7.25;2.33;;;10.10;99.90;;;;;;5071172;28;20040;-79
2023/05/18 03:54:00;;;;;;;7.32;2.55;;;10.00;99.90;;;;;;5070897;28;20049;-79
2023/05/18 03:56:30;;;;;;;8.77;2.42;;;9.90;99.90;;;;;;5054448;28;20064;-79
2023/05/18 03:58:57;;;;;;;13.40;2.88;;;9.80;99.90;;;;;;5054709;28;20414;-79
2023/05/18 04:01:24;;;;;;;7.57;2.05;;;9.70;99.90;;;;;;5070970;28;20099;-79
2023/05/18 04:03:54;;;;;;;11.05;2.40;;;9.70;99.90;;;;;;5053682;28;20414;-79
2023/05/18 04:06:25;;;;;;;6.35;2.00;;;9.70;99.90;;;;;;5070550;28;20471;-79
2023/05/18 04:08:51;;;;;;;7.40;1.95;;;9.60;99.90;;;;;;5070447;28;20514;-79
2023/05/18 04:11:18;;;;;;;9.27;2.53;;;9.60;99.90;;;;;;5070526;28;20386;-80
2023/05/18 04:13:45;;;;;;;6.15;2.00;;;9.60;99.90;;;;;;5053988;28;20059;-79
2023/05/18 04:16:13;;;;;;;7.82;2.10;;;9.50;99.90;;;;;;5054672;28;20144;-79
2023/05/18 04:18:40;;;;;;;10.50;2.08;;;9.50;99.90;;;;;;5055339;28;20102;-79
2023/05/18 04:21:07;;;;;;;19.33;2.38;;;9.50;99.90;;;;;;5070336;28;20467;-79
2023/05/18 04:23:37;;;;;;;8.52;2.13;;;9.40;99.90;;;;;;5053007;28;20084;-79
2023/05/18 04:26:05;;;;;;;12.85;2.70;;;9.40;99.90;;;;;;5070248;28;20370;-78
2023/05/18 04:28:32;;;;;;;14.45;1.95;;;9.40;99.90;;;;;;5070481;28;20422;-78
2023/05/18 04:31:00;;;;;;;6.97;2.20;;;9.30;99.90;;;;;;5070155;28;20107;-78
2023/05/18 04:33:27;;;;;;;14.27;3.15;;;9.30;99.90;;;;;;5070486;28;20044;-78
2023/05/18 04:36:03;;;;;;;9.30;2.17;;;9.30;99.90;;;;;;5070513;28;20127;-79
2023/05/18 04:38:31;;;;;;;7.70;2.05;;;9.30;99.90;;;;;;5073940;28;20080;-78
2023/05/18 04:40:59;;;;;;;7.40;2.00;;;9.20;99.90;;;;;;5061092;28;20436;-78
2023/05/18 04:43:27;;;;;;;10.32;2.33;;;9.20;99.90;;;;;;5036699;28;20103;-78
2023/05/18 04:45:56;;;;;;;6.43;2.15;;;9.30;99.90;;;;;;5037107;28;20075;-78
2023/05/18 04:48:24;;;;;;;8.40;2.38;;;9.20;99.90;;;;;;5037262;28;20037;-78
2023/05/18 04:50:53;;;;;;;9.75;2.35;;;9.20;99.90;;;;;;5036211;28;20036;-78
2023/05/18 04:53:20;;;;;;;12.18;3.28;;;9.20;99.90;;;;;;5036822;28;20384;-78
2023/05/18 04:55:49;;;;;;;6.95;1.90;;;9.10;99.90;;;;;;5036151;28;20422;-78
2023/05/18 04:58:16;;;;;;;10.88;2.33;;;9.10;99.90;;;;;;5040972;28;20479;-78
2023/05/18 05:00:43;;;;;;;7.53;2.17;;;9.10;99.90;;;;;;5040692;28;20139;-78
2023/05/18 05:03:10;;;;;;;8.77;2.35;;;9.10;99.90;;;;;;5040025;28;20041;-79
2023/05/18 05:05:36;;;;;;;7.68;2.10;;;9.20;99.90;;;;;;5041157;28;20132;-78
2023/05/18 05:08:06;;;;;;;12.82;2.95;;;9.30;99.90;;;;;;5058767;28;20072;-78
2023/05/18 05:10:32;;;;;;;6.32;2.40;;;9.30;99.90;;;;;;5057968;28;20128;-79
2023/05/18 05:12:59;;;;;;;9.20;2.67;;;9.30;99.90;;;;;;5041251;28;20136;-78
2023/05/18 05:15:26;;;;;;;8.18;2.28;;;9.30;99.90;;;;;;5023423;28;20045;-78
2023/05/18 05:17:53;;;;;;;9.98;2.63;;;9.30;99.90;;;;;;5040788;28;20471;-78
2023/05/18 05:20:20;;;;;;;9.02;2.20;;;9.30;99.90;;;;;;5040852;28;20175;-78
2023/05/18 05:22:46;;;;;;;8.05;2.30;;;9.40;99.90;;;;;;5039897;28;20044;-78
2023/05/18 05:25:16;;;;;;;7.82;2.35;;;9.40;99.90;;;;;;5040733;28;20041;-78
2023/05/18 05:27:44;;;;;;;8.65;2.15;;;9.50;99.90;;;;;;5041058;28;20121;-78
2023/05/18 05:30:11;;;;;;;8.23;2.10;;;9.50;99.90;;;;;;5040024;28;20041;-78
2023/05/18 05:32:40;;;;;;;9.05;2.78;;;9.60;99.90;;;;;;5040395;28;20471;-77
2023/05/18 05:35:07;;;;;;;7.43;2.42;;;9.60;99.90;;;;;;5041445;28;20057;-78
2023/05/18 05:40:21;;;;;;;9.80;2.40;;;9.60;99.90;;;;;;5053719;28;20052;-77
2023/05/18 05:42:50;;;;;;;8.38;2.63;;;9.70;99.90;;;;;;5076253;28;20071;-78
2023/05/18 05:45:17;;;;;;;12.35;2.65;;;9.80;99.90;;;;;;5076916;28;20131;-78
2023/05/18 05:47:49;;;;;;;6.90;2.30;;;10.00;99.90;;;;;;5076689;28;20036;-78
2023/05/18 05:50:18;;;;;;;8.43;2.78;;;10.20;99.90;;;;;;5076171;28;20055;-78
2023/05/18 05:52:46;;;;;;;12.75;3.20;;;10.30;99.90;;;;;;5060232;28;20032;-78
2023/05/18 05:55:15;;;;;;;8.50;2.50;;;10.50;99.90;;;;;;5077262;28;20498;-78
2023/05/18 06:00:28;;;;;;;9.52;2.65;;;10.70;99.90;;;;;;5077578;28;20047;-78
2023/05/18 06:02:59;;;;;;;13.88;3.47;;;10.80;99.90;;;;;;5075718;28;20047;-78
2023/05/18 06:05:39;;;;;;;9.73;2.80;;;11.00;99.90;;;;;;5076106;28;20047;-78
2023/05/18 06:08:08;;;;;;;8.20;2.58;;;11.10;99.90;;;;;;5075856;28;20533;-78
2023/05/18 06:10:35;;;;;;;9.82;2.60;;;11.30;99.90;;;;;;5058720;28;20043;-78
2023/05/18 06:13:02;;;;;;;15.23;3.10;;;11.40;99.90;;;;;;5059769;28;20067;-78
2023/05/18 06:15:39;;;;;;;10.18;2.75;;;11.50;99.90;;;;;;5060313;28;20071;-78
2023/05/18 06:18:06;;;;;;;9.75;2.63;;;11.70;99.90;;;;;;5059735;28;20044;-77
2023/05/18 06:20:33;;;;;;;9.00;2.80;;;11.90;99.90;;;;;;5059264;28;20048;-77
2023/05/18 06:23:00;;;;;;;11.48;2.83;;;12.00;99.90;;;;;;5058782;28;20135;-79
2023/05/18 06:25:46;;;;;;;11.38;2.95;;;12.20;99.90;;;;;;5076512;28;20190;-78
2023/05/18 06:28:22;;;;;;;11.43;2.60;;;12.30;99.90;;;;;;5075914;28;20119;-78
2023/05/18 06:30:56;;;;;;;21.40;3.50;;;12.40;99.90;;;;;;5074974;28;20044;-78
2023/05/18 06:33:36;;;;;;;8.57;2.72;;;12.50;99.90;;;;;;5075887;28;20045;-78
2023/05/18 06:36:03;;;;;;;9.25;2.55;;;12.60;99.90;;;;;;5075047;28;20143;-78
2023/05/18 06:38:30;;;;;;;10.85;2.92;;;12.70;99.90;;;;;;5076994;28;20055;-78
2023/05/18 06:40:56;;;;;;;13.10;3.10;;;12.90;99.90;;;;;;5063125;28;20053;-78
2023/05/18 06:43:25;;;;;;;14.02;3.15;;;13.10;99.90;;;;;;5039059;28;20071;-79
2023/05/18 06:46:02;;;;;;;17.13;3.08;;;13.30;99.90;;;;;;5039553;28;20148;-78
2023/05/18 06:48:33;;;;;;;15.63;3.40;;;13.30;99.90;;;;;;5038737;28;20537;-78
2023/05/18 06:51:00;;;;;;;14.48;2.38;;;13.30;99.90;;;;;;5039438;28;20383;-78
2023/05/18 06:53:27;;;;;;;11.20;2.60;;;13.40;99.90;;;;;;5039142;28;20037;-77
2023/05/18 06:55:56;;;;;;;13.98;2.55;;;13.60;99.90;;;;;;5038016;28;20140;-79
2023/05/18 06:58:23;;;;;;;9.43;2.53;;;13.50;99.90;;;;;;5038709;28;20442;-77
2023/05/18 07:00:50;;;;;;;9.30;2.70;;;13.60;99.90;;;;;;5022340;28;20049;-78
2023/05/18 07:03:17;;;;;;;11.15;3.03;;;13.60;99.90;;;;;;5055829;28;20044;-78
2023/05/18 07:05:44;;;;;;;14.75;2.97;;;13.70;99.90;;;;;;5039129;28;20460;-78
2023/05/18 07:08:11;;;;;;;13.57;2.95;;;13.70;99.90;;;;;;5056372;28;20041;-78
2023/05/18 07:10:37;;;;;;;6.55;2.45;;;14.00;99.90;;;;;;5038430;28;20566;-78
2023/05/18 07:13:04;;;;;;;12.18;2.80;;;14.30;99.90;;;;;;5022297;28;20043;-78
2023/05/18 07:15:31;;;;;;;8.88;2.30;;;14.40;99.90;;;;;;5055342;28;20048;-79
2023/05/18 07:17:59;;;;;;;9.48;2.35;;;14.50;99.90;;;;;;5041865;28;20067;-79
2023/05/18 07:20:25;;;;;;;6.55;1.92;;;14.60;99.90;;;;;;5038116;28;20049;-79
2023/05/18 07:22:54;;;;;;;9.80;2.90;;;14.70;99.90;;;;;;5038269;28;20112;-79
2023/05/18 07:25:21;;;;;;;10.65;2.40;;;14.80;99.90;;;;;;5027988;28;20044;-78
2023/05/18 07:27:50;;;;;;;13.25;2.05;;;15.00;99.90;;;;;;5036317;28;20037;-79
2023/05/18 07:30:17;;;;;;;8.45;1.98;;;15.10;99.90;;;;;;5034774;28;20042;-78
2023/05/18 07:32:44;;;;;;;14.10;2.38;;;15.20;99.90;;;;;;5035840;28;20101;-79
2023/05/18 07:35:11;;;;;;;8.25;2.30;;;15.40;99.90;;;;;;5029097;28;20510;-77
2023/05/18 07:37:38;;;;;;;8.88;2.40;;;15.50;99.90;;;;;;5054869;28;20118;-78
2023/05/18 07:40:05;;;;;;;8.65;1.85;;;15.60;99.90;;;;;;5054991;28;20068;-78
2023/05/18 07:42:32;;;;;;;13.75;1.83;;;15.70;99.90;;;;;;5037592;28;20035;-77
2023/05/18 07:44:59;;;;;;;9.00;2.38;;;15.90;99.90;;;;;;5033147;28;20084;-77
2023/05/18 07:47:27;;;;;;;10.05;2.20;;;16.00;99.90;;;;;;5035106;28;20181;-77
2023/05/18 07:49:53;;;;;;;9.65;2.10;;;15.90;99.90;;;;;;5034588;28;20045;-77
2023/05/18 07:52:20;;;;;;;9.98;2.38;;;16.10;99.90;;;;;;5018127;28;20095;-77
2023/05/18 07:54:47;;;;;;;11.68;2.40;;;16.20;99.90;;;;;;5004303;28;20041;-78
2023/05/18 07:57:15;;;;;;;9.30;2.60;;;16.20;99.90;;;;;;5037487;28;20171;-77
2023/05/18 07:59:41;;;;;;;8.07;2.03;;;16.30;99.90;;;;;;5055422;28;20379;-77
2023/05/18 08:02:08;;;;;;;11.18;1.83;;;16.50;99.90;;;;;;5053544;28;20072;-78
2023/05/18 08:04:35;;;;;;;9.10;1.83;;;16.60;99.90;;;;;;5037700;28;20053;-78
2023/05/18 08:07:03;;;;;;;9.73;2.08;;;16.60;99.90;;;;;;5037556;28;20049;-77
2023/05/18 08:09:30;;;;;;;6.55;2.10;;;16.70;99.90;;;;;;5054605;28;20037;-77
2023/05/18 08:11:57;;;;;;;8.18;1.88;;;16.60;99.90;;;;;;5037387;28;20033;-77
2023/05/18 08:14:24;;;;;;;8.38;2.10;;;16.70;99.90;;;;;;5049296;28;20061;-81
2023/05/18 08:19:37;;;;;;;7.57;2.28;;;16.80;99.90;;;;;;5050669;28;20128;-81
2023/05/18 08:22:07;;;;;;;12.25;2.13;;;17.00;99.90;;;;;;5047089;28;20125;-81
2023/05/18 08:24:34;;;;;;;11.60;1.88;;;17.00;99.90;;;;;;5029754;28;20048;-80
2023/05/18 08:27:02;;;;;;;8.43;1.92;;;17.10;99.90;;;;;;5035263;28;20121;-77
2023/05/18 08:29:29;;;;;;;11.55;2.38;;;17.20;99.90;;;;;;5036838;28;20045;-77
2023/05/18 08:31:56;;;;;;;8.73;2.13;;;17.10;99.90;;;;;;5035124;28;20472;-78
2023/05/18 08:34:24;;;;;;;9.38;2.05;;;17.30;99.90;;;;;;5034619;28;20152;-78
2023/05/18 08:36:51;;;;;;;12.63;2.53;;;17.30;99.90;;;;;;5048122;28;20041;-78
2023/05/18 08:39:18;;;;;;;12.30;2.50;;;17.40;99.90;;;;;;5033970;28;20107;-77
2023/05/18 08:41:45;;;;;;;16.38;2.70;;;17.60;99.90;;;;;;5053877;28;20103;-77
2023/05/18 08:44:13;;;;;;;15.85;3.72;;;17.70;99.90;;;;;;5036792;28;20068;-77
2023/05/18 08:46:39;;;;;;;12.00;2.85;;;17.80;99.90;;;;;;5054034;28;20448;-77
2023/05/18 08:49:06;;;;;;;11.95;3.35;;;17.90;99.90;;;;;;5054247;28;20045;-77
2023/05/18 08:51:33;;;;;;;10.93;2.88;;;17.70;99.90;;;;;;5042554;28;20430;-78
2023/05/18 08:54:01;;;;;;;10.05;3.00;;;17.90;99.90;;;;;;5036784;28;20399;-78
2023/05/18 08:56:28;;;;;;;10.65;3.00;;;18.00;99.90;;;;;;5053235;28;20067;-78
2023/05/18 08:58:55;;;;;;;13.95;3.22;;;18.20;99.90;;;;;;5054340;28;20162;-78
2023/05/18 09:01:26;;;;;;;10.13;2.97;;;18.20;99.90;;;;;;5053441;28;20055;-78
2023/05/18 09:03:53;;;;;;;13.05;3.45;;;18.10;99.90;;;;;;5053118;28;20049;-78
2023/05/18 09:06:23;;;;;;;16.00;3.67;;;18.20;99.90;;;;;;5052887;28;20442;-77
2023/05/18 09:08:50;;;;;;;11.07;3.03;;;18.20;99.90;;;;;;5052414;28;20038;-78
2023/05/18 09:11:16;;;;;;;9.10;3.00;;;18.10;99.90;;;;;;5036410;28;20037;-77
2023/05/18 09:13:43;;;;;;;13.98;3.22;;;18.00;99.90;;;;;;5054026;28;20048;-77
2023/05/18 09:16:10;;;;;;;16.90;3.30;;;18.30;99.90;;;;;;5053074;28;20048;-78
2023/05/18 09:18:37;;;;;;;19.83;3.60;;;18.60;99.90;;;;;;5054279;28;20379;-78
2023/05/18 09:21:04;;;;;;;13.07;3.53;;;18.70;99.90;;;;;;5047537;28;20083;-79
2023/05/18 09:23:30;;;;;;;18.42;4.13;;;18.90;99.90;;;;;;5052922;28;20075;-77
2023/05/18 09:25:57;;;;;;;13.93;3.78;;;18.90;99.90;;;;;;5053983;28;20045;-78
2023/05/18 09:28:24;;;;;;;17.67;3.50;;;18.90;99.90;;;;;;5054239;28;20428;-78
2023/05/18 09:30:52;;;;;;;16.13;2.97;;;19.00;99.90;;;;;;5052845;28;20056;-78
2023/05/18 09:33:20;;;;;;;15.05;3.53;;;19.20;99.90;;;;;;5054111;28;20076;-79
2023/05/18 09:35:48;;;;;;;14.77;3.53;;;19.30;99.90;;;;;;5053212;28;20041;-76
2023/05/18 09:38:16;;;;;;;11.73;3.47;;;19.40;99.90;;;;;;5053695;28;20049;-77
2023/05/18 09:40:42;;;;;;;13.88;3.97;;;19.40;99.90;;;;;;5048889;28;20049;-77
2023/05/18 09:43:09;;;;;;;11.68;3.70;;;19.50;99.90;;;;;;5033333;28;20045;-78
2023/05/18 09:45:36;;;;;;;14.25;3.92;;;19.40;99.90;;;;;;5037517;28;20124;-77
2023/05/18 09:48:04;;;;;;;13.40;3.47;;;19.40;99.90;;;;;;5020113;28;20551;-78
2023/05/18 09:50:30;;;;;;;9.60;3.38;;;19.60;99.90;;;;;;5022199;28;20471;-77
2023/05/18 09:52:57;;;;;;;12.55;3.47;;;19.60;99.90;;;;;;5057265;28;20505;-77
2023/05/18 09:55:24;;;;;;;13.38;3.10;;;19.50;99.90;;;;;;5039253;28;20045;-77
2023/05/18 09:57:51;;;;;;;13.60;3.40;;;19.50;99.90;;;;;;5057484;28;20045;-78
2023/05/18 10:00:18;;;;;;;14.85;3.13;;;19.50;99.90;;;;;;5057129;28;20124;-77
2023/05/18 10:02:50;;;;;;;13.07;3.60;;;19.50;99.90;;;;;;5057159;28;20098;-78
2023/05/18 10:05:18;;;;;;;12.82;3.92;;;19.50;99.90;;;;;;5039789;28;20053;-78
2023/05/18 10:07:45;;;;;;;14.23;3.30;;;19.30;99.90;;;;;;5036878;28;20065;-76
2023/05/18 10:10:12;;;;;;;12.98;3.00;;;19.30;99.90;;;;;;5036511;28;20103;-77
2023/05/18 10:12:39;;;;;;;11.82;2.90;;;19.60;99.90;;;;;;5037208;28;20037;-78
2023/05/18 10:15:06;;;;;;;11.85;3.17;;;19.90;99.90;;;;;;5036640;28;20053;-78
2023/05/18 10:17:33;;;;;;;15.98;3.22;;;19.80;99.90;;;;;;5054201;28;20040;-77
2023/05/18 10:19:59;;;;;;;10.38;3.00;;;20.00;99.90;;;;;;5056526;28;20048;-78
2023/05/18 10:22:26;;;;;;;9.52;3.17;;;20.30;99.90;;;;;;5038534;28;20072;-77
2023/05/18 10:24:53;;;;;;;13.23;3.38;;;20.50;99.90;;;;;;5019441;28;20076;-77
2023/05/18 10:27:20;;;;;;;11.13;3.30;;;20.70;99.90;;;;;;5036874;28;20073;-78
2023/05/18 10:29:46;;;;;;;12.57;3.00;;;21.00;99.90;;;;;;5018104;28;20424;-77
2023/05/18 10:32:14;;;;;;;13.32;3.95;;;21.30;99.90;;;;;;5036710;28;20128;-77
2023/05/18 10:34:42;;;;;;;12.32;4.28;;;21.50;99.90;;;;;;5036909;28;20052;-77
2023/05/18 10:37:09;;;;;;;11.02;3.50;;;21.70;99.90;;;;;;5030941;28;20075;-78
2023/05/18 10:39:37;;;;;;;14.50;3.50;;;21.80;99.90;;;;;;5056159;28;20375;-77
2023/05/18 10:42:04;;;;;;;13.18;3.60;;;21.90;99.90;;;;;;5055986;28;20080;-78
2023/05/18 10:44:31;;;;;;;14.77;3.50;;;22.10;99.90;;;;;;5056483;28;20049;-77
2023/05/18 10:46:58;;;;;;;14.75;4.55;;;21.80;99.90;;;;;;5056487;28;20063;-78
2023/05/18 10:49:25;;;;;;;12.10;3.47;;;22.00;99.90;;;;;;5055947;28;20112;-77
2023/05/18 10:51:51;;;;;;;13.93;3.55;;;22.20;99.90;;;;;;5055899;28;20056;-78
2023/05/18 10:54:18;;;;;;;9.65;3.15;;;22.60;98.60;;;;;;5056245;28;20041;-78
2023/05/18 10:56:46;;;;;;;14.13;3.58;;;23.20;99.90;;;;;;5046353;28;20041;-77
2023/05/18 10:59:13;;;;;;;12.80;3.65;;;23.50;97.90;;;;;;5019050;28;20053;-78
2023/05/18 11:01:43;;;;;;;10.82;3.35;;;23.40;95.40;;;;;;5026833;28;20131;-77
2023/05/18 11:04:09;;;;;;;9.82;3.50;;;23.70;97.50;;;;;;5055423;28;20395;-77
2023/05/18 11:06:37;;;;;;;12.23;3.40;;;23.80;94.80;;;;;;5047872;28;20041;-78
2023/05/18 11:09:03;;;;;;;12.30;3.83;;;23.90;93.60;;;;;;5035562;28;20080;-77
2023/05/18 11:11:30;;;;;;;15.18;4.15;;;24.10;94.50;;;;;;5042291;28;20037;-77
2023/05/18 11:13:57;;;;;;;10.85;3.80;;;24.20;92.30;;;;;;5050128;28;20353;-78
2023/05/18 11:16:23;;;;;;;13.27;3.85;;;24.70;92.30;;;;;;5047118;28;20563;-77
2023/05/18 11:18:50;;;;;;;16.52;4.22;;;24.90;90.30;;;;;;5055665;28;20116;-78
2023/05/18 11:21:18;;;;;;;10.50;3.47;;;24.90;88.20;;;;;;5055359;28;20467;-77
2023/05/18 11:23:45;;;;;;;11.88;3.80;;;24.90;88.80;;;;;;5055274;28;20460;-77
2023/05/18 11:26:11;;;;;;;10.13;3.13;;;24.80;91.50;;;;;;5052831;28;20460;-77
2023/05/18 11:28:41;;;;;;;12.40;3.85;;;24.80;90.70;;;;;;5034747;28;20437;-77
2023/05/18 11:31:08;;;;;;;8.77;2.72;;;24.40;88.70;;;;;;5018335;28;20375;-78
2023/05/18 11:33:37;;;;;;;9.52;3.05;;;24.30;90.10;;;;;;5035668;28;20037;-77
2023/05/18 11:36:06;;;;;;;13.15;3.45;;;24.20;88.90;;;;;;5035866;28;20045;-78
2023/05/18 11:38:32;;;;;;;9.57;2.92;;;24.20;86.50;;;;;;5055230;28;20056;-77
2023/05/18 11:41:02;;;;;;;11.48;3.75;;;24.30;88.90;;;;;;5054574;28;20060;-77
2023/05/18 11:43:29;;;;;;;11.85;2.85;;;24.10;83.00;;;;;;5054265;28;20041;-77
2023/05/18 11:45:56;;;;;;;9.98;3.10;;;24.20;83.90;;;;;;5037696;28;20151;-78
2023/05/18 11:48:25;;;;;;;9.98;3.28;;;24.20;82.90;;;;;;5017399;28;20338;-78
2023/05/18 11:50:51;;;;;;;11.85;3.50;;;24.30;83.70;;;;;;5033264;28;20048;-78
2023/05/18 11:53:18;;;;;;;10.82;3.40;;;24.70;85.40;;;;;;5054146;28;20037;-78
2023/05/18 11:55:45;;;;;;;11.05;3.38;;;25.00;81.50;;;;;;5054163;28;20528;-78
2023/05/18 11:58:17;;;;;;;11.05;3.80;;;25.10;81.30;;;;;;5019916;28;20396;-78
2023/05/18 12:00:45;;;;;;;10.88;3.30;;;25.50;83.40;;;;;;5035583;28;20132;-77
2023/05/18 12:03:11;;;;;;;11.45;3.30;;;25.20;79.80;;;;;;5034161;28;20045;-78
2023/05/18 12:05:40;;;;;;;9.70;3.28;;;24.90;81.60;;;;;;5036724;28;20124;-78
2023/05/18 12:08:10;;;;;;;11.77;3.42;;;25.50;82.10;;;;;;5017212;28;20038;-78
2023/05/18 12:10:36;;;;;;;10.38;3.13;;;26.10;78.40;;;;;;5033955;28;20045;-78
2023/05/18 12:13:03;;;;;;;11.00;3.90;;;26.30;80.20;;;;;;5034686;28;20133;-77
2023/05/18 12:15:30;;;;;;;11.48;3.60;;;26.80;79.30;;;;;;5034228;28;20449;-77
2023/05/18 12:17:57;;;;;;;12.30;3.40;;;27.10;75.40;;;;;;5034953;28;20451;-77
2023/05/18 12:20:24;;;;;;;13.48;3.90;;;27.40;74.70;;;;;;5034167;28;20464;-77
2023/05/18 12:22:51;;;;;;;14.02;3.47;;;27.70;75.50;;;;;;5047747;28;20041;-75
2023/05/18 12:25:18;;;;;;;11.57;3.53;;;27.80;72.30;;;;;;5054807;28;20483;-75
2023/05/18 12:27:46;;;;;;;10.35;3.20;;;27.80;72.20;;;;;;5042115;28;20544;-75
2023/05/18 12:30:13;;;;;;;9.55;3.33;;;27.80;74.50;;;;;;5033766;28;20045;-76
2023/05/18 12:32:40;;;;;;;11.32;3.35;;;28.00;71.40;;;;;;5034518;28;20082;-75
2023/05/18 12:35:07;;;;;;;9.63;3.60;;;27.70;73.00;;;;;;5034830;28;20049;-75
2023/05/18 12:37:34;;;;;;;11.13;3.80;;;27.30;74.10;;;;;;5030765;28;20052;-75
2023/05/18 12:40:11;;;;;;;9.52;3.92;;;27.10;74.10;;;;;;5054223;28;20052;-77
2023/05/18 12:42:37;;;;;;;13.38;3.97;;;27.00;72.40;;;;;;5036185;28;20064;-78
2023/05/18 12:45:04;;;;;;;10.57;3.17;;;27.10;73.50;;;;;;5037356;28;20064;-79
2023/05/18 12:47:33;;;;;;;10.60;3.80;;;26.80;72.50;;;;;;5036979;28;20087;-79
2023/05/18 12:49:59;;;;;;;11.05;3.28;;;26.70;74.00;;;;;;5035976;28;20041;-78
2023/05/18 12:52:26;;;;;;;11.48;3.60;;;26.60;72.90;;;;;;5046982;28;20076;-79
2023/05/18 12:54:59;;;;;;;11.23;4.05;;;26.20;74.20;;;;;;5034306;28;20512;-77
2023/05/18 12:57:26;;;;;;;10.93;3.75;;;25.80;75.60;;;;;;5033419;28;20072;-77
2023/05/18 12:59:53;;;;;;;10.43;3.53;;;25.20;74.10;;;;;;5033984;28;20042;-77
2023/05/18 13:02:19;;;;;;;12.32;3.80;;;25.30;75.10;;;;;;5032905;28;20041;-77
2023/05/18 13:04:46;;;;;;;13.50;3.67;;;25.10;74.90;;;;;;5033984;28;20037;-78
2023/05/18 13:07:13;;;;;;;10.93;3.42;;;25.40;74.30;;;;;;5015827;28;20417;-77